TimeCST,TemperatureF,Dew PointF,Humidity,Sea Level PressureIn,VisibilityMPH,Wind Direction,Wind SpeedMPH,Gust SpeedMPH,PrecipitationIn,Events,Conditions,WindDirDegrees,DateUTC
12:55 AM,44.6,41.0,87,30.27,7.0,Calm,Calm,-,N/A,,Partly Cloudy,0,2012-11-25 06:55:00
2:00 AM,42.8,41.0,93,30.26,7.0,Calm,Calm,-,N/A,,Partly Cloudy,0,2012-11-25 08:00:00
2:50 AM,50,43,70,29.98,5,SSW,2.2,,,,,210,2012-11-25 08:50:00
3:13 AM,41.0,39.2,93,29.98,7.0,Calm,Calm,-,N/A,,Scattered Clouds,0,2012-11-25 09:13:00
4:20 AM,39.2,37.4,93,30.25,7.0,Calm,Calm,-,N/A,,Scattered Clouds,0,2012-11-25 10:20:00
4:42 AM,37.4,35.6,93,30.25,6.0,Calm,Calm,-,N/A,,Scattered Clouds,0,2012-11-25 10:42:00
5:50 AM,45,42,86,30.03,5,South,2.2,,,,,190,2012-11-25 11:50:00
5:52 AM,37.4,35.6,93,30.01,6.0,Calm,Calm,-,N/A,,Clear,0,2012-11-25 11:52:00
6:45 AM,37.4,35.6,93,30.25,5.0,Calm,Calm,-,N/A,,Clear,0,2012-11-25 12:45:00
7:48 AM,41.0,39.2,93,30.28,5.0,Calm,Calm,-,N/A,,Clear,0,2012-11-25 13:48:00
8:46 AM,48.2,42.8,82,30.05,6.0,Calm,Calm,-,N/A,,Clear,0,2012-11-25 14:46:00
8:55 AM,51,46,77,30.12,6,South,2.2,,,,,170,2012-11-25 14:55:00
9:47 AM,59.0,44.6,59,30.31,6.0,Calm,Calm,-,N/A,,Clear,0,2012-11-25 15:47:00
10:45 AM,60.8,44.6,55,30.29,6.0,Calm,Calm,-,N/A,,Partly Cloudy,0,2012-11-25 16:45:00
11:42 AM,64.4,46.4,52,29.98,6.0,NE,4.6,-,N/A,,Partly Cloudy,50,2012-11-25 17:42:00
11:45 AM,67,49,41,30.06,7,North,4.5,,,,,0,2012-11-25 17:45:00
12:45 PM,68.0,46.4,46,30.22,7.0,Variable,3.5,-,N/A,,Clear,0,2012-11-25 18:45:00
1:45 PM,71.6,44.6,38,30.17,8.0,Calm,Calm,-,N/A,,Clear,0,2012-11-25 19:45:00
2:45 PM,73.4,44.6,36,29.87,8.0,NNW,8.1,-,N/A,,Clear,330,2012-11-25 20:45:00
2:50 PM,74,41,20,29.89,7,NE,4.5,,,,Partly Cloudy,40,2012-11-25 20:50:00
3:45 PM,73.4,42.8,33,30.14,8.0,WNW,4.6,-,N/A,,Scattered Clouds,300,2012-11-25 21:45:00
4:46 PM,73.4,39.2,29,30.14,8.0,NNW,5.8,-,N/A,,Partly Cloudy,330,2012-11-25 22:46:00
5:41 PM,73.4,39.2,29,29.88,8.0,Calm,Calm,-,N/A,,Partly Cloudy,0,2012-11-25 23:41:00
5:50 PM,69,43,27,29.81,7,NNE,4.5,,,,Partly Cloudy,30,2012-11-25 23:50:00
6:41 PM,59.0,48.2,67,30.16,8.0,Variable,3.5,-,N/A,,Partly Cloudy,0,2012-11-26 00:41:00
7:44 PM,57.2,48.2,72,30.19,8.0,Variable,3.5,-,N/A,,Clear,0,2012-11-26 01:44:00
8:48 PM,55.4,50.0,82,29.96,8.0,Calm,Calm,-,N/A,,Clear,0,2012-11-26 02:48:00
8:50 PM,59,53,76,29.77,5,South,4.5,,,,,180,2012-11-26 02:50:00
9:47 PM,51.8,48.2,88,30.23,7.0,Calm,Calm,-,N/A,,Clear,0,2012-11-26 03:47:00
10:45 PM,46.4,44.6,93,30.24,7.0,Calm,Calm,-,N/A,,Clear,0,2012-11-26 04:45:00
11:45 PM,46.4,42.8,87,29.96,7.0,Calm,Calm,-,N/A,,Clear,0,2012-11-26 05:45:00
11:50 PM,54,51,86,29.89,5,SSE,2.2,,,,,150,2012-11-26 05:50:00